Time;durP1;ratioP1;P1;durP2;ratioP2;P2;SDS_P1;SDS_P2;PMS_P1;PMS_P2;Temp;Humidity;BMP_temperature;BMP_pressure;BME280_temperature;BME280_humidity;BME280_pressure;Samples;Min_cycle;Max_cycle;Signal;HPM_P1;HPM_P2
2022/01/16 00:04:38;;;;;;;21.13;11.18;;;;;;;0.76;100.00;101653.22;5037655;28;20029;-51
2022/01/16 00:07:04;;;;;;;19.80;11.30;;;;;;;0.61;100.00;101650.66;5025437;28;21779;-49
2022/01/16 00:09:31;;;;;;;23.73;11.70;;;;;;;0.52;100.00;101648.66;5034376;28;20534;-52
2022/01/16 00:11:59;;;;;;;33.90;16.05;;;;;;;0.40;100.00;101652.03;5037690;28;20618;-49
2022/01/16 00:14:30;;;;;;;36.33;16.92;;;;;;;0.25;100.00;101658.19;5034151;28;20553;-51
2022/01/16 00:16:55;;;;;;;26.25;11.73;;;;;;;0.14;100.00;101643.22;5039496;28;21161;-49
2022/01/16 00:19:21;;;;;;;21.58;12.35;;;;;;;0.12;100.00;101632.03;5037136;28;20029;-52
2022/01/16 00:21:46;;;;;;;18.92;10.35;;;;;;;0.08;100.00;101634.00;5032530;28;20030;-50
2022/01/16 00:24:12;;;;;;;23.70;11.32;;;;;;;0.07;100.00;101639.31;5039173;28;20121;-53
2022/01/16 00:26:40;;;;;;;23.77;10.45;;;;;;;0.06;100.00;101656.72;5034468;28;20073;-52
2022/01/16 00:29:07;;;;;;;19.20;8.48;;;;;;;0.04;100.00;101660.34;5035778;28;20043;-52
2022/01/16 00:31:34;;;;;;;46.90;19.88;;;;;;;-0.01;100.00;101647.59;5038186;28;20043;-55
2022/01/16 00:33:59;;;;;;;38.20;18.77;;;;;;;-0.11;100.00;101639.50;5038653;28;20042;-54
2022/01/16 00:36:24;;;;;;;36.50;17.27;;;;;;;-0.12;100.00;101643.03;5035110;28;20037;-52
2022/01/16 00:38:52;;;;;;;21.75;11.55;;;;;;;-0.02;100.00;101657.19;5035563;28;20045;-53
2022/01/16 00:41:19;;;;;;;25.30;12.75;;;;;;;0.01;100.00;101665.78;5032758;28;20041;-52
2022/01/16 00:43:46;;;;;;;17.98;9.52;;;;;;;0.02;100.00;101670.88;5034584;28;20033;-53
2022/01/16 00:46:11;;;;;;;16.17;10.45;;;;;;;0.00;100.00;101654.50;5045656;28;20082;-53
2022/01/16 00:48:36;;;;;;;15.05;8.48;;;;;;;-0.07;100.00;101651.41;5040242;28;20041;-49
2022/01/16 00:51:02;;;;;;;19.92;11.27;;;;;;;-0.16;100.00;101651.97;5048204;28;20120;-53
2022/01/16 00:53:28;;;;;;;21.35;10.57;;;;;;;-0.26;100.00;101648.25;5064587;28;20037;-49
2022/01/16 00:55:53;;;;;;;25.25;11.63;;;;;;;-0.36;100.00;101645.38;5039989;28;20637;-50
2022/01/16 00:58:19;;;;;;;22.73;11.07;;;;;;;-0.45;100.00;101638.91;5046439;28;20037;-50
2022/01/16 01:00:44;;;;;;;22.20;10.40;;;;;;;-0.53;100.00;101629.91;5032070;28;20049;-53
2022/01/16 01:03:11;;;;;;;18.50;9.43;;;;;;;-0.61;100.00;101619.09;5046703;28;20125;-55
2022/01/16 01:05:37;;;;;;;20.17;10.93;;;;;;;-0.62;100.00;101630.41;5037313;28;20511;-50
2022/01/16 01:08:04;;;;;;;17.52;9.70;;;;;;;-0.58;100.00;101624.13;5056271;28;20448;-50
2022/01/16 01:10:34;;;;;;;20.27;8.93;;;;;;;-0.52;100.00;101597.69;5052150;28;20037;-54
2022/01/16 01:13:12;;;;;;;17.35;10.00;;;;;;;-0.49;100.00;101613.13;5049071;28;20032;-51
2022/01/16 01:15:46;;;;;;;18.83;10.88;;;;;;;-0.47;100.00;101608.66;5023458;28;20032;-50
2022/01/16 01:18:12;;;;;;;16.15;9.73;;;;;;;-0.43;100.00;101624.97;5050622;28;20037;-51
2022/01/16 01:20:40;;;;;;;25.75;11.80;;;;;;;-0.42;100.00;101611.00;5049922;28;20036;-49
2022/01/16 01:23:06;;;;;;;23.33;12.23;;;;;;;-0.42;100.00;101629.25;5032169;28;20033;-52
2022/01/16 01:25:31;;;;;;;18.17;9.75;;;;;;;-0.37;100.00;101635.03;5033068;28;20034;-51
2022/01/16 01:27:56;;;;;;;17.08;9.02;;;;;;;-0.36;100.00;101632.34;5044546;28;20044;-51
2022/01/16 01:30:24;;;;;;;21.08;11.65;;;;;;;-0.33;100.00;101647.78;5034789;28;20375;-53
2022/01/16 01:32:51;;;;;;;15.13;8.20;;;;;;;-0.29;100.00;101628.41;5043722;28;20029;-51
2022/01/16 01:35:20;;;;;;;16.42;8.65;;;;;;;-0.26;100.00;101636.06;5047861;28;20072;-54
2022/01/16 01:37:46;;;;;;;21.27;9.82;;;;;;;-0.19;100.00;101607.00;5029125;28;20048;-51
2022/01/16 01:40:23;;;;;;;19.65;10.70;;;;;;;-0.16;100.00;101627.66;5032606;28;20034;-52
2022/01/16 01:51:15;;;;;;;15.32;8.85;;;;;;;-0.01;100.00;101532.88;5038666;28;20059;-54
2022/01/16 01:53:42;;;;;;;19.63;8.07;;;;;;;0.02;100.00;101522.22;5066319;28;20258;-51
2022/01/16 01:56:11;;;;;;;19.70;9.50;;;;;;;0.05;100.00;101555.94;5048006;28;20634;-52
2022/01/16 01:58:37;;;;;;;18.17;9.48;;;;;;;0.06;100.00;101591.53;5045884;28;20032;-53
2022/01/16 02:01:03;;;;;;;20.88;9.93;;;;;;;0.11;100.00;101589.47;5029889;28;20645;-57
2022/01/16 02:05:57;;;;;;;19.92;10.55;;;;;;;-0.05;100.00;101620.06;5041810;28;20045;-52
2022/01/16 02:08:23;;;;;;;24.38;11.40;;;;;;;-0.15;100.00;101593.69;5058653;28;20035;-51
2022/01/16 02:10:49;;;;;;;20.58;11.43;;;;;;;-0.18;100.00;101604.31;5030077;28;20033;-52
2022/01/16 02:13:22;;;;;;;23.52;10.00;;;;;;;-0.29;100.00;101617.16;5029662;28;20025;-54
2022/01/16 02:34:39;;;;;;;35.78;16.30;;;;;;;-1.02;100.00;101630.97;5045507;28;20032;-54
2022/01/16 02:37:08;;;;;;;25.92;12.27;;;;;;;-1.07;100.00;101630.41;5046740;28;20399;-53
2022/01/16 02:39:36;;;;;;;20.40;10.38;;;;;;;-1.13;100.00;101636.81;5047883;28;20032;-52
2022/01/16 02:42:04;;;;;;;24.38;11.07;;;;;;;-1.19;100.00;101631.09;5048104;28;20040;-53
2022/01/16 02:44:34;;;;;;;16.38;9.93;;;;;;;-1.28;100.00;101627.25;5041368;28;20494;-52
2022/01/16 02:47:02;;;;;;;21.23;11.60;;;;;;;-1.35;100.00;101625.91;5033698;28;20053;-51
2022/01/16 02:49:34;;;;;;;18.05;7.93;;;;;;;-1.40;100.00;101623.56;5025974;28;20368;-50
2022/01/16 02:52:05;;;;;;;19.23;9.18;;;;;;;-1.45;100.00;101622.97;5046282;28;20382;-52
2022/01/16 02:54:35;;;;;;;22.10;10.65;;;;;;;-1.46;100.00;101610.91;5047044;28;20439;-54
2022/01/16 02:57:05;;;;;;;18.63;9.23;;;;;;;-1.52;100.00;101613.00;5036341;28;20067;-53
2022/01/16 02:59:33;;;;;;;21.43;9.00;;;;;;;-1.58;100.00;101620.22;5033938;28;20096;-52
2022/01/16 03:01:59;;;;;;;18.50;8.73;;;;;;;-1.66;100.00;101617.22;5043345;28;20297;-54
2022/01/16 03:04:24;;;;;;;20.75;9.13;;;;;;;-1.72;100.00;101617.56;5014623;28;20386;-53
2022/01/16 03:06:50;;;;;;;19.52;10.00;;;;;;;-1.76;100.00;101621.22;5047706;28;20045;-53
2022/01/16 03:09:16;;;;;;;20.10;8.43;;;;;;;-1.84;100.00;101608.66;5046624;28;20067;-54
2022/01/16 03:11:48;;;;;;;20.80;8.90;;;;;;;-1.90;100.00;101601.19;5046934;28;20087;-55
2022/01/16 03:14:19;;;;;;;16.80;8.25;;;;;;;-1.98;100.00;101580.81;5032934;28;20136;-50
2022/01/16 03:16:49;;;;;;;19.63;9.38;;;;;;;-1.99;100.00;101576.53;5046914;28;20063;-52
2022/01/16 03:22:03;;;;;;;15.85;8.10;;;;;;;-2.02;100.00;101594.88;5046767;28;20040;-53
2022/01/16 03:24:40;;;;;;;19.23;10.23;;;;;;;-2.05;100.00;101579.47;5032241;28;20393;-51
2022/01/16 03:27:14;;;;;;;17.75;9.00;;;;;;;-2.09;100.00;101587.50;5033561;28;20561;-51
2022/01/16 03:29:41;;;;;;;18.00;9.25;;;;;;;-2.14;100.00;101582.56;5045800;28;20048;-52
2022/01/16 03:32:09;;;;;;;17.75;9.57;;;;;;;-2.20;100.00;101577.69;5046592;28;20044;-52
2022/01/16 03:34:35;;;;;;;17.48;8.02;;;;;;;-2.25;100.00;101577.09;5046838;28;20442;-54
2022/01/16 03:37:00;;;;;;;24.63;10.70;;;;;;;-2.28;100.00;101569.47;5042649;28;20043;-53
2022/01/16 03:39:26;;;;;;;17.88;8.35;;;;;;;-2.29;100.00;101560.00;5046214;28;20118;-49
2022/01/16 03:41:52;;;;;;;19.90;10.02;;;;;;;-2.30;100.00;101563.50;5046422;28;20025;-51
2022/01/16 03:44:17;;;;;;;33.45;17.58;;;;;;;-2.38;100.00;101563.91;5044730;28;20022;-50
2022/01/16 03:46:43;;;;;;;23.67;10.82;;;;;;;-2.37;100.00;101564.78;5043674;28;20490;-52
2022/01/16 03:49:12;;;;;;;21.02;10.38;;;;;;;-2.37;100.00;101575.16;5028394;28;20033;-48
2022/01/16 03:51:39;;;;;;;21.23;10.30;;;;;;;-2.37;100.00;101588.16;5046289;28;20512;-50
2022/01/16 03:54:06;;;;;;;22.15;9.68;;;;;;;-2.38;100.00;101589.03;5045282;28;20048;-55
2022/01/16 03:56:32;;;;;;;18.08;10.05;;;;;;;-2.39;100.00;101592.56;5027994;28;20128;-53
2022/01/16 03:58:58;;;;;;;17.40;9.23;;;;;;;-2.41;100.00;101593.47;5046837;28;20124;-51
2022/01/16 04:01:24;;;;;;;18.52;7.80;;;;;;;-2.39;100.00;101598.59;5047069;28;20037;-48
2022/01/16 04:03:51;;;;;;;18.52;9.55;;;;;;;-2.38;100.00;101602.88;5028495;28;20067;-52
2022/01/16 04:06:17;;;;;;;13.88;7.78;;;;;;;-2.39;100.00;101597.78;5044596;28;20029;-51
2022/01/16 04:08:42;;;;;;;14.77;7.60;;;;;;;-2.38;100.00;101604.63;5046307;28;20028;-48
2022/01/16 04:11:08;;;;;;;25.70;9.57;;;;;;;-2.37;100.00;101606.34;5045300;28;20033;-52
2022/01/16 04:13:34;;;;;;;25.63;11.25;;;;;;;-2.36;100.00;101603.63;5045744;28;20148;-53
2022/01/16 04:15:59;;;;;;;22.23;10.15;;;;;;;-2.33;100.00;101590.47;5031351;28;20073;-53
2022/01/16 04:18:25;;;;;;;17.70;8.73;;;;;;;-2.33;100.00;101587.88;5042002;28;20045;-51
2022/01/16 04:20:50;;;;;;;33.13;12.10;;;;;;;-2.30;100.00;101586.88;5045741;28;20608;-51
2022/01/16 04:23:15;;;;;;;62.85;24.38;;;;;;;-2.28;100.00;101592.84;5044938;28;20040;-48
2022/01/16 04:25:41;;;;;;;45.58;16.88;;;;;;;-2.28;100.00;101600.63;5045421;28;20038;-51
2022/01/16 04:28:06;;;;;;;32.25;11.85;;;;;;;-2.25;100.00;101595.28;5045392;28;20037;-49
2022/01/16 04:30:32;;;;;;;21.95;10.43;;;;;;;-2.24;100.00;101589.19;5043251;28;20062;-48
2022/01/16 04:32:57;;;;;;;52.78;16.50;;;;;;;-2.22;100.00;101582.13;5021958;28;20029;-48
2022/01/16 04:35:23;;;;;;;51.83;12.70;;;;;;;-2.24;100.00;101584.81;5041117;28;20068;-48
2022/01/16 04:37:49;;;;;;;23.23;11.13;;;;;;;-2.26;100.00;101584.03;5038641;28;20036;-48
2022/01/16 04:40:15;;;;;;;23.75;8.77;;;;;;;-2.28;100.00;101579.84;5040962;28;20049;-53
2022/01/16 04:45:25;;;;;;;19.85;7.10;;;;;;;-2.34;100.00;101590.56;5038535;28;20086;-49
2022/01/16 04:47:52;;;;;;;28.67;11.15;;;;;;;-2.36;100.00;101580.25;5043473;28;20033;-49
2022/01/16 04:50:18;;;;;;;23.13;8.82;;;;;;;-2.41;100.00;101580.50;5036276;28;20116;-51
2022/01/16 04:52:45;;;;;;;25.83;9.57;;;;;;;-2.42;100.00;101580.59;5038691;28;20461;-51
2022/01/16 04:55:12;;;;;;;17.30;8.25;;;;;;;-2.44;100.00;101585.84;5041535;28;20032;-50
2022/01/16 04:57:38;;;;;;;23.10;8.48;;;;;;;-2.44;100.00;101578.06;5038622;28;20056;-50
2022/01/16 05:00:11;;;;;;;20.02;10.25;;;;;;;-2.43;100.00;101573.69;5040313;28;20112;-51
2022/01/16 05:02:36;;;;;;;17.85;8.13;;;;;;;-2.41;100.00;101572.69;5038047;28;20037;-51
2022/01/16 05:05:02;;;;;;;21.17;8.82;;;;;;;-2.41;100.00;101569.28;5037997;28;20021;-50
2022/01/16 05:07:28;;;;;;;25.67;9.15;;;;;;;-2.42;100.00;101576.22;5039204;28;20033;-49
2022/01/16 05:09:53;;;;;;;24.52;10.10;;;;;;;-2.42;100.00;101571.03;5041748;28;20158;-52
2022/01/16 05:12:27;;;;;;;20.20;8.65;;;;;;;-2.42;100.00;101580.59;5043254;28;20032;-48
2022/01/16 05:17:36;;;;;;;20.63;7.50;;;;;;;-2.43;100.00;101579.75;5039550;28;20067;-51
2022/01/16 05:20:03;;;;;;;20.77;8.25;;;;;;;-2.43;100.00;101587.53;5035673;28;20037;-53
2022/01/16 05:22:28;;;;;;;22.52;10.38;;;;;;;-2.39;100.00;101574.41;5041202;28;20072;-50
2022/01/16 05:24:54;;;;;;;16.48;9.60;;;;;;;-2.32;100.00;101579.19;5041404;28;20427;-51
2022/01/16 05:27:19;;;;;;;25.02;10.82;;;;;;;-2.17;100.00;101592.25;5040680;28;20021;-52
2022/01/16 05:29:44;;;;;;;22.52;8.40;;;;;;;-2.04;100.00;101596.75;5034746;28;20033;-50
2022/01/16 05:32:10;;;;;;;17.02;8.98;;;;;;;-1.99;100.00;101599.06;5042432;28;20079;-54
2022/01/16 05:34:35;;;;;;;21.02;9.90;;;;;;;-1.98;100.00;101595.56;5041443;28;20052;-50
2022/01/16 05:37:01;;;;;;;23.48;9.90;;;;;;;-1.95;100.00;101589.38;5040008;28;20033;-48
2022/01/16 05:39:26;;;;;;;22.90;9.73;;;;;;;-1.98;100.00;101583.41;5041484;28;20028;-51
2022/01/16 05:41:51;;;;;;;20.35;9.50;;;;;;;-1.98;100.00;101590.38;5037308;28;20127;-53
2022/01/16 05:44:17;;;;;;;30.42;10.88;;;;;;;-1.96;100.00;101578.16;5041056;28;20430;-50
2022/01/16 05:46:42;;;;;;;16.08;8.48;;;;;;;-1.89;100.00;101576.03;5038169;28;20033;-49
2022/01/16 05:49:08;;;;;;;27.77;9.82;;;;;;;-1.85;100.00;101575.78;5041498;28;20033;-50
2022/01/16 05:51:33;;;;;;;26.05;9.27;;;;;;;-1.80;100.00;101565.97;5046175;28;20052;-49
2022/01/16 05:53:59;;;;;;;26.23;9.15;;;;;;;-1.78;100.00;101577.13;5040721;28;20112;-51
2022/01/16 05:56:24;;;;;;;22.05;8.32;;;;;;;-1.72;100.00;101586.34;5044342;28;20029;-52
2022/01/16 05:58:50;;;;;;;25.52;8.75;;;;;;;-1.68;100.00;101582.63;5044701;28;20024;-49
2022/01/16 06:01:15;;;;;;;23.58;8.70;;;;;;;-1.63;100.00;101585.00;5039647;28;20508;-52
2022/01/16 06:03:40;;;;;;;24.30;9.10;;;;;;;-1.60;100.00;101588.28;5042723;28;20045;-52
2022/01/16 06:06:06;;;;;;;22.15;9.18;;;;;;;-1.56;100.00;101581.97;5046318;28;20024;-48
2022/01/16 06:08:31;;;;;;;26.77;9.45;;;;;;;-1.51;100.00;101599.09;5038399;28;20486;-49
2022/01/16 06:10:56;;;;;;;16.75;8.23;;;;;;;-1.50;100.00;101592.94;5044791;28;20037;-52
2022/01/16 06:13:23;;;;;;;22.42;10.50;;;;;;;-1.48;100.00;101606.72;5041960;28;20033;-53
2022/01/16 06:15:48;;;;;;;18.77;8.85;;;;;;;-1.48;100.00;101596.31;5044115;28;20030;-53
2022/01/16 06:18:14;;;;;;;28.23;9.68;;;;;;;-1.48;100.00;101591.09;5043566;28;20032;-51
2022/01/16 06:20:41;;;;;;;24.08;9.07;;;;;;;-1.47;100.00;101600.59;5043118;28;20037;-50
2022/01/16 06:23:06;;;;;;;25.27;10.10;;;;;;;-1.44;100.00;101605.63;5042759;28;20064;-50
2022/01/16 06:25:32;;;;;;;29.13;8.35;;;;;;;-1.44;100.00;101614.28;5042702;28;20063;-54
2022/01/16 06:27:58;;;;;;;22.88;10.45;;;;;;;-1.40;100.00;101617.53;5046535;28;20040;-52
2022/01/16 06:30:23;;;;;;;29.67;12.20;;;;;;;-1.38;100.00;101600.91;5043479;28;20529;-48
2022/01/16 06:32:48;;;;;;;34.78;11.93;;;;;;;-1.35;100.00;101612.91;5041805;28;20474;-51
2022/01/16 06:35:14;;;;;;;26.05;9.35;;;;;;;-1.34;100.00;101618.03;5042734;28;20037;-52
2022/01/16 06:37:40;;;;;;;34.08;10.70;;;;;;;-1.34;100.00;101617.22;5029080;28;20407;-55
2022/01/16 06:40:07;;;;;;;41.30;11.65;;;;;;;-1.31;100.00;101611.81;5037469;28;20033;-49
2022/01/16 06:42:32;;;;;;;19.10;8.80;;;;;;;-1.28;100.00;101608.22;5042120;28;20029;-52
2022/01/16 06:44:58;;;;;;;22.05;9.85;;;;;;;-1.27;100.00;101621.13;5048021;28;20033;-51
2022/01/16 06:47:24;;;;;;;17.05;10.10;;;;;;;-1.26;100.00;101615.00;5029652;28;20037;-54
2022/01/16 06:49:49;;;;;;;22.35;8.45;;;;;;;-1.25;100.00;101619.28;5043936;28;20528;-50
2022/01/16 06:52:15;;;;;;;21.45;9.35;;;;;;;-1.23;100.00;101635.66;5029130;28;20044;-51
2022/01/16 06:54:41;;;;;;;31.75;11.55;;;;;;;-1.21;100.00;101635.56;5043218;28;20456;-50
2022/01/16 06:57:07;;;;;;;27.02;8.45;;;;;;;-1.16;100.00;101634.38;5047559;28;20060;-50
2022/01/16 06:59:34;;;;;;;41.22;13.02;;;;;;;-1.14;100.00;101637.72;5047415;28;20044;-48
2022/01/16 07:01:59;;;;;;;32.15;10.65;;;;;;;-1.14;100.00;101635.09;5031435;28;20115;-52
2022/01/16 07:04:26;;;;;;;23.83;9.70;;;;;;;-1.13;100.00;101631.59;5040763;28;20488;-49
2022/01/16 07:06:51;;;;;;;27.35;9.98;;;;;;;-1.10;100.00;101646.19;5040248;28;20508;-51
2022/01/16 07:09:17;;;;;;;27.77;9.63;;;;;;;-1.07;100.00;101650.41;5055616;28;20075;-48
2022/01/16 07:11:42;;;;;;;25.42;10.75;;;;;;;-1.08;100.00;101648.69;5047820;28;20032;-51
2022/01/16 07:14:08;;;;;;;34.38;12.60;;;;;;;-1.10;100.00;101657.44;5047491;28;20108;-51
2022/01/16 07:16:33;;;;;;;33.65;11.48;;;;;;;-1.09;100.00;101663.50;5042951;28;20033;-52
2022/01/16 07:18:58;;;;;;;37.22;11.82;;;;;;;-1.08;100.00;101673.00;5028862;28;20154;-51
2022/01/16 07:21:24;;;;;;;50.45;11.32;;;;;;;-1.06;100.00;101667.69;5038719;28;20029;-51
2022/01/16 07:23:49;;;;;;;32.28;9.70;;;;;;;-1.06;100.00;101675.50;5036357;28;20033;-52
2022/01/16 07:26:17;;;;;;;60.30;12.88;;;;;;;-1.07;100.00;101672.06;5037753;28;20045;-48
2022/01/16 07:28:42;;;;;;;25.05;10.05;;;;;;;-1.06;100.00;101685.91;5034750;28;20055;-48
2022/01/16 07:31:08;;;;;;;30.02;9.70;;;;;;;-1.05;100.00;101691.03;5038402;28;20482;-51
2022/01/16 07:33:33;;;;;;;17.17;8.20;;;;;;;-1.03;100.00;101697.00;5037443;28;20076;-49
2022/01/16 07:35:59;;;;;;;33.08;11.48;;;;;;;-1.01;100.00;101694.28;5035083;28;20045;-49
2022/01/16 07:38:24;;;;;;;21.13;8.25;;;;;;;-1.00;100.00;101685.59;5046934;28;20067;-51
2022/01/16 07:40:49;;;;;;;123.10;17.83;;;;;;;-0.96;100.00;101690.50;5045568;28;20406;-56
2022/01/16 07:43:15;;;;;;;32.50;10.27;;;;;;;-0.92;100.00;101685.97;5044972;28;20060;-48
2022/01/16 07:45:40;;;;;;;28.88;12.05;;;;;;;-0.89;100.00;101704.03;5036073;28;20304;-53
2022/01/16 07:48:07;;;;;;;74.07;14.35;;;;;;;-0.89;100.00;101710.06;5044579;28;20065;-51
2022/01/16 07:50:34;;;;;;;22.05;7.72;;;;;;;-0.90;100.00;101710.16;5037580;28;20032;-54
2022/01/16 07:52:59;;;;;;;24.67;9.27;;;;;;;-0.94;100.00;101711.25;5044303;28;20564;-52
2022/01/16 07:55:26;;;;;;;36.08;13.43;;;;;;;-0.92;100.00;101712.84;5039304;28;20029;-53
2022/01/16 07:57:56;;;;;;;43.47;11.63;;;;;;;-0.91;100.00;101706.69;5036836;28;20040;-51
2022/01/16 08:00:22;;;;;;;92.65;13.15;;;;;;;-0.93;100.00;101705.97;5023489;28;20067;-49
2022/01/16 08:02:49;;;;;;;34.00;9.85;;;;;;;-0.89;100.00;101711.84;5046993;28;20033;-54
2022/01/16 08:05:15;;;;;;;21.40;8.13;;;;;;;-0.86;100.00;101716.88;5038699;28;20147;-50
2022/01/16 08:07:42;;;;;;;41.47;9.85;;;;;;;-0.83;100.00;101716.69;5043312;28;20062;-53
2022/01/16 08:10:08;;;;;;;19.40;8.20;;;;;;;-0.79;100.00;101702.56;5043773;28;20542;-52
2022/01/16 08:12:33;;;;;;;48.53;14.50;;;;;;;-0.79;100.00;101710.38;5046393;28;20171;-53
2022/01/16 08:14:59;;;;;;;34.60;11.85;;;;;;;-0.77;100.00;101713.75;5035915;28;20104;-52
2022/01/16 08:17:25;;;;;;;23.80;10.95;;;;;;;-0.74;100.00;101700.56;5043203;28;20076;-51
2022/01/16 08:19:50;;;;;;;24.65;8.90;;;;;;;-0.72;100.00;101709.13;5032111;28;20041;-51
2022/01/16 08:22:15;;;;;;;21.67;9.05;;;;;;;-0.70;100.00;101712.47;5036632;28;20055;-51
2022/01/16 08:24:41;;;;;;;21.63;7.15;;;;;;;-0.68;100.00;101708.00;5043247;28;20036;-53
2022/01/16 08:27:06;;;;;;;22.70;8.90;;;;;;;-0.65;100.00;101712.19;5042392;28;20082;-52
2022/01/16 08:29:31;;;;;;;32.67;12.38;;;;;;;-0.63;100.00;101709.50;5043140;28;20072;-51
2022/01/16 08:31:57;;;;;;;19.80;7.72;;;;;;;-0.60;100.00;101714.53;5034879;28;20107;-55
2022/01/16 08:34:22;;;;;;;28.20;9.02;;;;;;;-0.59;100.00;101713.63;5036598;28;20407;-51
2022/01/16 08:36:47;;;;;;;27.45;8.45;;;;;;;-0.54;100.00;101728.06;5032511;28;20037;-53
2022/01/16 08:39:14;;;;;;;24.63;9.32;;;;;;;-0.50;100.00;101734.75;5035940;28;20051;-49
2022/01/16 08:41:40;;;;;;;37.47;11.50;;;;;;;-0.49;100.00;101735.59;5041869;28;20029;-51
2022/01/16 08:44:06;;;;;;;31.33;9.43;;;;;;;-0.49;100.00;101741.66;5035285;28;20094;-49
2022/01/16 08:46:32;;;;;;;22.55;7.65;;;;;;;-0.46;100.00;101745.88;5033014;28;20040;-54
2022/01/16 08:48:57;;;;;;;27.42;8.52;;;;;;;-0.46;100.00;101738.88;5031002;28;20040;-56
2022/01/16 08:51:23;;;;;;;21.42;8.05;;;;;;;-0.44;100.00;101738.78;5029041;28;20832;-51
2022/01/16 08:53:49;;;;;;;30.45;9.90;;;;;;;-0.43;100.00;101758.72;5035789;28;20033;-56
2022/01/16 08:56:15;;;;;;;35.60;8.00;;;;;;;-0.40;100.00;101748.09;5030538;28;20037;-54
2022/01/16 08:58:41;;;;;;;21.60;7.72;;;;;;;-0.35;100.00;101756.50;5037110;28;20341;-52
2022/01/16 09:01:06;;;;;;;20.95;9.40;;;;;;;-0.30;100.00;101766.66;5031942;28;20033;-52
2022/01/16 09:03:32;;;;;;;13.05;6.78;;;;;;;-0.24;100.00;101768.91;5033895;28;20033;-49
2022/01/16 09:05:57;;;;;;;18.88;6.10;;;;;;;-0.14;100.00;101772.66;5036596;28;20037;-52
2022/01/16 09:08:23;;;;;;;20.55;7.95;;;;;;;-0.09;100.00;101770.59;5020083;28;20025;-53
2022/01/16 09:10:48;;;;;;;16.27;7.63;;;;;;;-0.01;100.00;101780.59;5034845;28;20026;-49
2022/01/16 09:13:17;;;;;;;28.65;6.97;;;;;;;0.07;100.00;101794.00;5032965;28;20024;-52
2022/01/16 09:15:44;;;;;;;9.93;5.15;;;;;;;0.13;100.00;101784.97;5032235;28;20117;-51
2022/01/16 09:18:10;;;;;;;15.85;5.45;;;;;;;0.16;100.00;101806.50;5031119;28;20080;-53
2022/01/16 09:20:36;;;;;;;16.98;7.07;;;;;;;0.25;100.00;101810.34;5022383;28;20029;-54
2022/01/16 09:23:02;;;;;;;13.07;4.88;;;;;;;0.29;100.00;101798.78;5037816;28;20067;-52
2022/01/16 09:25:27;;;;;;;11.05;7.28;;;;;;;0.31;100.00;101804.78;5037067;28;20428;-56
2022/01/16 09:27:53;;;;;;;21.60;7.88;;;;;;;0.36;100.00;101813.16;5028460;28;20393;-49
2022/01/16 09:30:20;;;;;;;21.40;8.07;;;;;;;0.46;100.00;101807.38;5044181;28;20025;-53
2022/01/16 09:32:46;;;;;;;26.92;7.40;;;;;;;0.51;100.00;101803.53;5040060;28;20033;-55
2022/01/16 09:35:11;;;;;;;18.42;7.07;;;;;;;0.57;100.00;101812.78;5040090;28;20041;-52
2022/01/16 09:37:37;;;;;;;18.90;7.10;;;;;;;0.61;100.00;101815.09;5033740;28;20534;-53
2022/01/16 09:40:04;;;;;;;23.10;6.93;;;;;;;0.67;100.00;101831.31;5042398;28;20162;-55
2022/01/16 09:42:29;;;;;;;23.70;6.95;;;;;;;0.73;100.00;101833.56;5039319;28;20033;-50
2022/01/16 09:44:55;;;;;;;12.18;5.65;;;;;;;0.80;100.00;101834.84;5040647;28;20029;-54
2022/01/16 09:47:21;;;;;;;16.02;6.38;;;;;;;0.85;100.00;101835.41;5038931;28;20030;-52
2022/01/16 09:49:46;;;;;;;14.15;5.25;;;;;;;0.92;100.00;101841.94;5045970;28;20036;-55
2022/01/16 09:52:12;;;;;;;16.75;6.15;;;;;;;0.98;100.00;101846.81;5044654;28;20037;-52
2022/01/16 09:54:38;;;;;;;12.40;4.63;;;;;;;1.07;100.00;101845.38;5038416;28;20027;-52
2022/01/16 09:57:04;;;;;;;11.65;5.65;;;;;;;1.05;100.00;101842.00;5044781;28;20044;-54
2022/01/16 09:59:30;;;;;;;10.45;4.82;;;;;;;1.03;100.00;101843.88;5039187;28;20096;-54
2022/01/16 10:01:55;;;;;;;9.50;5.28;;;;;;;0.99;100.00;101848.47;5047102;28;20033;-49
2022/01/16 10:04:32;;;;;;;13.88;6.63;;;;;;;1.07;100.00;101845.38;5040407;28;20036;-54
2022/01/16 10:07:00;;;;;;;12.80;5.25;;;;;;;1.11;100.00;101846.88;5039589;28;20127;-55
2022/01/16 10:09:26;;;;;;;11.25;5.10;;;;;;;1.15;100.00;101861.41;5041341;28;20443;-50
2022/01/16 10:11:56;;;;;;;10.82;4.97;;;;;;;1.16;100.00;101865.72;5039692;28;20101;-53
2022/01/16 10:14:36;;;;;;;10.55;5.32;;;;;;;1.28;100.00;101867.53;5038637;28;20025;-53
2022/01/16 10:17:15;;;;;;;7.88;4.95;;;;;;;1.50;100.00;101864.41;5040605;28;20044;-55
2022/01/16 10:19:41;;;;;;;11.00;5.28;;;;;;;1.73;100.00;101860.31;5041397;28;20544;-51
2022/01/16 10:22:10;;;;;;;12.95;5.28;;;;;;;2.01;100.00;101868.94;5044312;28;20178;-52
2022/01/16 10:24:39;;;;;;;12.15;6.68;;;;;;;2.24;100.00;101875.25;5041478;28;20043;-50
2022/01/16 10:27:07;;;;;;;16.45;7.65;;;;;;;2.48;100.00;101882.41;5043415;28;20033;-53
2022/01/16 10:29:39;;;;;;;10.00;5.70;;;;;;;2.60;100.00;101882.41;5044355;28;20029;-55
2022/01/16 10:32:19;;;;;;;19.02;9.25;;;;;;;2.72;100.00;101885.16;5041228;28;20060;-55
2022/01/16 10:34:46;;;;;;;14.00;6.57;;;;;;;2.87;100.00;101891.13;5042881;28;20028;-54
2022/01/16 10:37:40;;;;;;;13.90;6.55;;;;;;;3.23;100.00;101885.91;5044583;28;20056;-55
2022/01/16 10:40:09;;;;;;;13.20;6.40;;;;;;;3.52;100.00;101890.03;5036949;28;20068;-55
2022/01/16 10:42:35;;;;;;;11.90;5.60;;;;;;;3.61;100.00;101886.72;5035195;28;20182;-54
2022/01/16 10:45:06;;;;;;;12.02;5.43;;;;;;;3.81;100.00;101890.53;5034073;28;20506;-51
2022/01/16 10:47:37;;;;;;;13.77;7.18;;;;;;;3.88;100.00;101892.59;5037907;28;20037;-55
2022/01/16 10:50:06;;;;;;;;;;;;;;;3.90;100.00;101889.84;5040739;28;20033;-53
2022/01/16 10:52:32;;;;;;;10.77;5.75;;;;;;;3.94;100.00;101892.13;5039045;28;19924;-53
2022/01/16 10:55:08;;;;;;;9.05;4.85;;;;;;;4.03;100.00;101897.66;5037272;28;20370;-55
2022/01/16 10:57:34;;;;;;;14.60;5.15;;;;;;;4.14;100.00;101905.56;5034728;28;20033;-54
2022/01/16 11:00:15;;;;;;;10.48;5.93;;;;;;;4.26;100.00;101903.78;5035913;28;20060;-53
2022/01/16 11:02:44;;;;;;;11.88;7.30;;;;;;;4.30;100.00;101902.63;5040472;28;20819;-54
2022/01/16 11:05:16;;;;;;;9.13;5.65;;;;;;;4.34;100.00;101911.97;5022066;28;20037;-54
2022/01/16 11:07:42;;;;;;;12.85;6.07;;;;;;;4.38;100.00;101913.38;5040576;28;20044;-52
2022/01/16 11:10:38;;;;;;;14.45;7.05;;;;;;;4.49;100.00;101912.56;5040939;28;20060;-51
2022/01/16 11:13:09;;;;;;;12.00;7.07;;;;;;;4.59;100.00;101903.91;5032998;28;20091;-54
2022/01/16 11:15:38;;;;;;;11.98;6.40;;;;;;;4.71;100.00;101904.72;5037621;28;20032;-52
2022/01/16 11:18:04;;;;;;;9.90;5.78;;;;;;;4.84;100.00;101907.25;5023910;28;20044;-51
2022/01/16 11:20:37;;;;;;;10.43;4.78;;;;;;;4.98;100.00;101904.41;5038079;28;20154;-50
2022/01/16 11:26:01;;;;;;;7.20;5.60;;;;;;;5.22;100.00;101906.06;5039113;28;20033;-53
2022/01/16 11:28:27;;;;;;;8.88;4.75;;;;;;;5.23;100.00;101910.34;5041372;28;20541;-55
2022/01/16 11:30:56;;;;;;;11.90;6.03;;;;;;;5.21;100.00;101921.00;5040413;28;20702;-55
2022/01/16 11:33:23;;;;;;;10.75;5.80;;;;;;;5.10;100.00;101925.41;5039596;28;20043;-56
2022/01/16 11:35:54;;;;;;;8.38;6.03;;;;;;;4.99;100.00;101916.56;5035740;28;20039;-52
2022/01/16 11:38:21;;;;;;;10.10;6.05;;;;;;;4.88;100.00;101928.88;5023735;28;20043;-53
2022/01/16 11:40:48;;;;;;;13.82;6.25;;;;;;;4.79;100.00;101930.41;5040220;28;20036;-54
2022/01/16 11:43:33;;;;;;;10.40;6.45;;;;;;;5.09;100.00;101932.47;5040016;28;20085;-54
2022/01/16 11:46:01;;;;;;;8.55;6.30;;;;;;;5.52;100.00;101928.25;5039941;28;20029;-54
2022/01/16 11:48:35;;;;;;;10.73;6.45;;;;;;;5.79;100.00;101930.47;5042874;28;20402;-53
2022/01/16 11:51:05;;;;;;;10.82;5.10;;;;;;;5.83;100.00;101924.81;5034992;28;20486;-54
2022/01/16 11:54:10;;;;;;;10.23;5.72;;;;;;;5.68;100.00;101926.91;5036799;28;20056;-51